sensor_id;sensor_type;location;lat;lon;timestamp;temperature;humidity
25360;DHT22;13311;51.386;0.016;2023-04-07T00:02:55;10.20;96.30
25360;DHT22;13311;51.386;0.016;2023-04-07T00:07:56;10.00;96.20
25360;DHT22;13311;51.386;0.016;2023-04-07T00:12:57;10.00;96.20
25360;DHT22;13311;51.386;0.016;2023-04-07T00:17:58;9.90;96.10
25360;DHT22;13311;51.386;0.016;2023-04-07T00:22:59;9.90;96.30
25360;DHT22;13311;51.386;0.016;2023-04-07T00:27:59;9.80;96.30
25360;DHT22;13311;51.386;0.016;2023-04-07T00:33:00;9.90;96.10
25360;DHT22;13311;51.386;0.016;2023-04-07T00:38:01;9.90;96.20
25360;DHT22;13311;51.386;0.016;2023-04-07T00:43:02;9.90;96.40
25360;DHT22;13311;51.386;0.016;2023-04-07T00:48:04;9.80;96.40
25360;DHT22;13311;51.386;0.016;2023-04-07T00:53:05;9.80;96.30
25360;DHT22;13311;51.386;0.016;2023-04-07T00:58:06;9.70;96.40
25360;DHT22;13311;51.386;0.016;2023-04-07T01:03:16;9.70;96.40
25360;DHT22;13311;51.386;0.016;2023-04-07T01:08:47;9.60;96.30
25360;DHT22;13311;51.386;0.016;2023-04-07T01:13:52;9.70;96.40
25360;DHT22;13311;51.386;0.016;2023-04-07T01:18:56;9.60;96.40
25360;DHT22;13311;51.386;0.016;2023-04-07T01:29:36;9.60;96.40
25360;DHT22;13311;51.386;0.016;2023-04-07T01:34:40;9.60;96.30
25360;DHT22;13311;51.386;0.016;2023-04-07T01:39:41;9.50;96.30
25360;DHT22;13311;51.386;0.016;2023-04-07T01:44:42;9.50;96.40
25360;DHT22;13311;51.386;0.016;2023-04-07T01:49:44;9.50;96.50
25360;DHT22;13311;51.386;0.016;2023-04-07T01:54:46;9.40;96.40
25360;DHT22;13311;51.386;0.016;2023-04-07T01:59:47;9.40;96.30
25360;DHT22;13311;51.386;0.016;2023-04-07T02:04:54;9.30;96.40
25360;DHT22;13311;51.386;0.016;2023-04-07T02:09:58;9.20;96.30
25360;DHT22;13311;51.386;0.016;2023-04-07T02:15:00;9.20;96.50
25360;DHT22;13311;51.386;0.016;2023-04-07T02:20:02;9.20;96.60
25360;DHT22;13311;51.386;0.016;2023-04-07T02:30:28;9.10;96.60
25360;DHT22;13311;51.386;0.016;2023-04-07T02:35:29;9.00;96.60
25360;DHT22;13311;51.386;0.016;2023-04-07T02:40:30;9.00;96.70
25360;DHT22;13311;51.386;0.016;2023-04-07T02:45:30;8.90;96.60
25360;DHT22;13311;51.386;0.016;2023-04-07T02:50:32;8.90;96.70
25360;DHT22;13311;51.386;0.016;2023-04-07T02:55:33;8.90;96.70
25360;DHT22;13311;51.386;0.016;2023-04-07T03:00:34;8.90;96.70
25360;DHT22;13311;51.386;0.016;2023-04-07T03:05:34;8.90;96.70
25360;DHT22;13311;51.386;0.016;2023-04-07T03:10:35;8.80;96.60
25360;DHT22;13311;51.386;0.016;2023-04-07T03:15:36;8.80;96.70
25360;DHT22;13311;51.386;0.016;2023-04-07T03:20:36;8.80;96.80
25360;DHT22;13311;51.386;0.016;2023-04-07T03:25:37;8.80;96.90
25360;DHT22;13311;51.386;0.016;2023-04-07T03:30:38;8.80;97.00
25360;DHT22;13311;51.386;0.016;2023-04-07T03:35:38;8.70;97.00
25360;DHT22;13311;51.386;0.016;2023-04-07T03:40:39;8.70;97.10
25360;DHT22;13311;51.386;0.016;2023-04-07T03:45:41;8.70;97.40
25360;DHT22;13311;51.386;0.016;2023-04-07T03:50:41;8.70;97.50
25360;DHT22;13311;51.386;0.016;2023-04-07T03:55:42;8.60;97.50
25360;DHT22;13311;51.386;0.016;2023-04-07T04:00:43;8.60;97.50
25360;DHT22;13311;51.386;0.016;2023-04-07T04:05:44;8.70;97.90
25360;DHT22;13311;51.386;0.016;2023-04-07T04:10:45;8.70;98.10
25360;DHT22;13311;51.386;0.016;2023-04-07T04:15:45;8.90;98.20
25360;DHT22;13311;51.386;0.016;2023-04-07T04:20:46;8.90;98.10
25360;DHT22;13311;51.386;0.016;2023-04-07T04:25:48;9.00;98.20
25360;DHT22;13311;51.386;0.016;2023-04-07T04:30:48;9.10;98.10
25360;DHT22;13311;51.386;0.016;2023-04-07T04:35:49;9.10;98.00
25360;DHT22;13311;51.386;0.016;2023-04-07T04:40:50;9.10;97.90
25360;DHT22;13311;51.386;0.016;2023-04-07T04:45:51;9.10;97.70
25360;DHT22;13311;51.386;0.016;2023-04-07T04:50:52;9.10;97.70
25360;DHT22;13311;51.386;0.016;2023-04-07T04:55:52;9.00;97.50
25360;DHT22;13311;51.386;0.016;2023-04-07T05:00:53;8.90;97.60
25360;DHT22;13311;51.386;0.016;2023-04-07T05:05:58;8.80;97.70
25360;DHT22;13311;51.386;0.016;2023-04-07T05:10:59;8.70;98.00
25360;DHT22;13311;51.386;0.016;2023-04-07T05:16:00;8.60;98.10
25360;DHT22;13311;51.386;0.016;2023-04-07T05:21:01;8.50;98.10
25360;DHT22;13311;51.386;0.016;2023-04-07T05:26:02;8.50;98.30
25360;DHT22;13311;51.386;0.016;2023-04-07T05:31:02;8.50;98.40
25360;DHT22;13311;51.386;0.016;2023-04-07T05:36:03;8.50;98.30
25360;DHT22;13311;51.386;0.016;2023-04-07T05:41:04;8.50;98.40
25360;DHT22;13311;51.386;0.016;2023-04-07T05:46:05;8.50;98.50
25360;DHT22;13311;51.386;0.016;2023-04-07T05:51:06;8.50;98.60
25360;DHT22;13311;51.386;0.016;2023-04-07T05:56:07;8.60;98.50
25360;DHT22;13311;51.386;0.016;2023-04-07T06:01:07;8.70;98.60
25360;DHT22;13311;51.386;0.016;2023-04-07T06:06:08;8.70;98.60
25360;DHT22;13311;51.386;0.016;2023-04-07T06:11:09;8.80;98.70
25360;DHT22;13311;51.386;0.016;2023-04-07T06:16:10;9.00;98.80
25360;DHT22;13311;51.386;0.016;2023-04-07T06:21:11;9.00;98.70
25360;DHT22;13311;51.386;0.016;2023-04-07T06:26:12;9.00;98.60
25360;DHT22;13311;51.386;0.016;2023-04-07T06:31:12;9.10;98.40
25360;DHT22;13311;51.386;0.016;2023-04-07T06:36:13;9.50;99.10
25360;DHT22;13311;51.386;0.016;2023-04-07T06:41:14;10.40;98.90
25360;DHT22;13311;51.386;0.016;2023-04-07T06:46:17;11.40;97.10
25360;DHT22;13311;51.386;0.016;2023-04-07T06:51:18;12.40;95.70
25360;DHT22;13311;51.386;0.016;2023-04-07T06:56:19;13.20;94.10
25360;DHT22;13311;51.386;0.016;2023-04-07T07:01:20;14.10;93.00
25360;DHT22;13311;51.386;0.016;2023-04-07T07:06:21;14.90;91.40
25360;DHT22;13311;51.386;0.016;2023-04-07T07:11:22;15.60;90.50
25360;DHT22;13311;51.386;0.016;2023-04-07T07:16:22;16.30;89.60
25360;DHT22;13311;51.386;0.016;2023-04-07T07:21:23;16.80;87.90
25360;DHT22;13311;51.386;0.016;2023-04-07T07:26:26;17.40;86.10
25360;DHT22;13311;51.386;0.016;2023-04-07T07:31:27;17.70;83.60
25360;DHT22;13311;51.386;0.016;2023-04-07T07:36:27;17.90;82.70
25360;DHT22;13311;51.386;0.016;2023-04-07T07:41:28;18.00;82.70
25360;DHT22;13311;51.386;0.016;2023-04-07T07:46:29;18.00;81.70
25360;DHT22;13311;51.386;0.016;2023-04-07T07:51:29;17.90;81.00
25360;DHT22;13311;51.386;0.016;2023-04-07T07:56:30;17.90;82.20
25360;DHT22;13311;51.386;0.016;2023-04-07T08:01:31;17.90;81.40
25360;DHT22;13311;51.386;0.016;2023-04-07T08:06:32;17.60;81.30
25360;DHT22;13311;51.386;0.016;2023-04-07T08:11:32;17.50;82.20
25360;DHT22;13311;51.386;0.016;2023-04-07T08:16:33;17.30;81.70
25360;DHT22;13311;51.386;0.016;2023-04-07T08:21:34;17.20;83.20
25360;DHT22;13311;51.386;0.016;2023-04-07T08:26:35;17.20;82.40
25360;DHT22;13311;51.386;0.016;2023-04-07T08:31:36;17.30;83.70
25360;DHT22;13311;51.386;0.016;2023-04-07T08:36:37;17.40;83.60
25360;DHT22;13311;51.386;0.016;2023-04-07T08:41:41;17.50;83.70
25360;DHT22;13311;51.386;0.016;2023-04-07T08:46:44;17.60;83.40
25360;DHT22;13311;51.386;0.016;2023-04-07T08:51:46;17.80;83.40
25360;DHT22;13311;51.386;0.016;2023-04-07T08:56:47;17.90;82.30
25360;DHT22;13311;51.386;0.016;2023-04-07T09:01:48;18.10;82.50
25360;DHT22;13311;51.386;0.016;2023-04-07T09:06:50;18.10;81.50
25360;DHT22;13311;51.386;0.016;2023-04-07T09:11:50;18.10;82.10
25360;DHT22;13311;51.386;0.016;2023-04-07T09:16:53;18.30;82.10
25360;DHT22;13311;51.386;0.016;2023-04-07T09:21:55;18.50;82.10
25360;DHT22;13311;51.386;0.016;2023-04-07T09:32:34;18.80;82.20
25360;DHT22;13311;51.386;0.016;2023-04-07T09:37:40;19.00;81.90
25360;DHT22;13311;51.386;0.016;2023-04-07T09:42:45;19.00;80.30
25360;DHT22;13311;51.386;0.016;2023-04-07T09:47:47;19.30;79.70
25360;DHT22;13311;51.386;0.016;2023-04-07T09:52:50;19.40;81.30
25360;DHT22;13311;51.386;0.016;2023-04-07T09:57:52;19.20;79.90
25360;DHT22;13311;51.386;0.016;2023-04-07T10:02:57;19.50;81.20
25360;DHT22;13311;51.386;0.016;2023-04-07T10:07:59;19.50;76.90
25360;DHT22;13311;51.386;0.016;2023-04-07T10:13:04;19.90;79.60
25360;DHT22;13311;51.386;0.016;2023-04-07T10:18:06;19.90;81.90
25360;DHT22;13311;51.386;0.016;2023-04-07T10:23:42;19.70;78.50
25360;DHT22;13311;51.386;0.016;2023-04-07T10:28:49;19.40;80.20
25360;DHT22;13311;51.386;0.016;2023-04-07T10:33:52;19.30;78.00
25360;DHT22;13311;51.386;0.016;2023-04-07T10:44:44;19.60;78.10
25360;DHT22;13311;51.386;0.016;2023-04-07T10:50:16;19.70;77.30
25360;DHT22;13311;51.386;0.016;2023-04-07T10:55:43;19.70;71.20
25360;DHT22;13311;51.386;0.016;2023-04-07T11:06:10;20.20;71.30
25360;DHT22;13311;51.386;0.016;2023-04-07T11:11:15;20.10;67.60
25360;DHT22;13311;51.386;0.016;2023-04-07T11:16:19;20.30;76.40
25360;DHT22;13311;51.386;0.016;2023-04-07T11:21:34;19.90;64.20
25360;DHT22;13311;51.386;0.016;2023-04-07T11:26:40;19.90;72.00
25360;DHT22;13311;51.386;0.016;2023-04-07T11:31:46;20.20;80.70
25360;DHT22;13311;51.386;0.016;2023-04-07T11:36:47;20.30;77.20
25360;DHT22;13311;51.386;0.016;2023-04-07T11:41:49;20.20;69.80
25360;DHT22;13311;51.386;0.016;2023-04-07T11:46:57;19.70;65.10
25360;DHT22;13311;51.386;0.016;2023-04-07T11:52:04;19.70;73.10
25360;DHT22;13311;51.386;0.016;2023-04-07T11:57:08;19.90;71.60
25360;DHT22;13311;51.386;0.016;2023-04-07T12:02:30;19.30;66.70
25360;DHT22;13311;51.386;0.016;2023-04-07T12:07:31;18.90;63.40
25360;DHT22;13311;51.386;0.016;2023-04-07T12:12:32;18.80;63.20
25360;DHT22;13311;51.386;0.016;2023-04-07T12:17:33;18.80;65.90
25360;DHT22;13311;51.386;0.016;2023-04-07T12:22:34;18.90;66.10
25360;DHT22;13311;51.386;0.016;2023-04-07T12:27:34;19.20;70.30
25360;DHT22;13311;51.386;0.016;2023-04-07T12:32:35;19.30;62.80
25360;DHT22;13311;51.386;0.016;2023-04-07T12:37:37;19.10;60.10
25360;DHT22;13311;51.386;0.016;2023-04-07T12:42:38;19.40;68.90
25360;DHT22;13311;51.386;0.016;2023-04-07T12:47:39;19.80;60.10
25360;DHT22;13311;51.386;0.016;2023-04-07T12:52:39;20.20;74.50
25360;DHT22;13311;51.386;0.016;2023-04-07T12:57:40;20.10;58.30
25360;DHT22;13311;51.386;0.016;2023-04-07T13:02:41;19.80;66.10
25360;DHT22;13311;51.386;0.016;2023-04-07T13:07:43;19.70;69.10
25360;DHT22;13311;51.386;0.016;2023-04-07T13:12:44;19.70;72.50
25360;DHT22;13311;51.386;0.016;2023-04-07T13:17:45;19.60;58.20
25360;DHT22;13311;51.386;0.016;2023-04-07T13:22:47;19.80;63.50
25360;DHT22;13311;51.386;0.016;2023-04-07T13:27:48;20.10;73.50
25360;DHT22;13311;51.386;0.016;2023-04-07T13:32:48;19.90;58.10
25360;DHT22;13311;51.386;0.016;2023-04-07T13:37:49;19.70;58.90
25360;DHT22;13311;51.386;0.016;2023-04-07T13:42:50;19.60;67.40
25360;DHT22;13311;51.386;0.016;2023-04-07T13:47:51;20.00;74.30
25360;DHT22;13311;51.386;0.016;2023-04-07T13:52:51;19.90;64.00
25360;DHT22;13311;51.386;0.016;2023-04-07T13:57:52;19.80;59.80
25360;DHT22;13311;51.386;0.016;2023-04-07T14:02:53;19.60;55.80
25360;DHT22;13311;51.386;0.016;2023-04-07T14:07:55;19.40;57.00
25360;DHT22;13311;51.386;0.016;2023-04-07T14:12:55;19.30;56.70
25360;DHT22;13311;51.386;0.016;2023-04-07T14:17:56;19.10;55.60
25360;DHT22;13311;51.386;0.016;2023-04-07T14:22:57;18.70;54.10
25360;DHT22;13311;51.386;0.016;2023-04-07T14:27:58;18.20;55.30
25360;DHT22;13311;51.386;0.016;2023-04-07T14:32:59;18.00;56.70
25360;DHT22;13311;51.386;0.016;2023-04-07T14:37:59;18.00;69.90
25360;DHT22;13311;51.386;0.016;2023-04-07T14:43:01;18.30;61.00
25360;DHT22;13311;51.386;0.016;2023-04-07T14:48:02;18.40;58.70
25360;DHT22;13311;51.386;0.016;2023-04-07T14:53:03;18.60;63.10
25360;DHT22;13311;51.386;0.016;2023-04-07T14:58:04;18.40;58.00
25360;DHT22;13311;51.386;0.016;2023-04-07T15:03:05;18.50;58.50
25360;DHT22;13311;51.386;0.016;2023-04-07T15:08:06;18.40;56.40
25360;DHT22;13311;51.386;0.016;2023-04-07T15:13:06;18.20;56.50
25360;DHT22;13311;51.386;0.016;2023-04-07T15:18:07;18.50;59.10
25360;DHT22;13311;51.386;0.016;2023-04-07T15:23:08;18.50;57.00
25360;DHT22;13311;51.386;0.016;2023-04-07T15:28:09;18.50;54.00
25360;DHT22;13311;51.386;0.016;2023-04-07T15:33:09;18.70;64.70
25360;DHT22;13311;51.386;0.016;2023-04-07T15:38:10;18.50;57.40
25360;DHT22;13311;51.386;0.016;2023-04-07T15:43:11;18.20;57.30
25360;DHT22;13311;51.386;0.016;2023-04-07T15:48:12;17.80;58.50
25360;DHT22;13311;51.386;0.016;2023-04-07T15:53:13;17.70;58.30
25360;DHT22;13311;51.386;0.016;2023-04-07T15:58:14;17.50;58.40
25360;DHT22;13311;51.386;0.016;2023-04-07T16:03:14;17.40;58.50
25360;DHT22;13311;51.386;0.016;2023-04-07T16:08:16;17.10;57.60
25360;DHT22;13311;51.386;0.016;2023-04-07T16:13:16;17.10;57.80
25360;DHT22;13311;51.386;0.016;2023-04-07T16:18:17;17.00;58.20
25360;DHT22;13311;51.386;0.016;2023-04-07T16:23:18;16.80;59.40
25360;DHT22;13311;51.386;0.016;2023-04-07T16:28:19;16.80;59.00
25360;DHT22;13311;51.386;0.016;2023-04-07T16:33:20;16.70;58.30
25360;DHT22;13311;51.386;0.016;2023-04-07T16:38:21;16.80;58.80
25360;DHT22;13311;51.386;0.016;2023-04-07T16:43:22;16.80;57.80
25360;DHT22;13311;51.386;0.016;2023-04-07T16:48:23;16.70;58.30
25360;DHT22;13311;51.386;0.016;2023-04-07T16:53:24;16.80;58.00
25360;DHT22;13311;51.386;0.016;2023-04-07T16:58:24;16.70;58.70
25360;DHT22;13311;51.386;0.016;2023-04-07T17:03:25;16.70;58.70
25360;DHT22;13311;51.386;0.016;2023-04-07T17:08:26;16.80;58.70
25360;DHT22;13311;51.386;0.016;2023-04-07T17:13:27;16.70;58.30
25360;DHT22;13311;51.386;0.016;2023-04-07T17:18:27;16.60;58.30
25360;DHT22;13311;51.386;0.016;2023-04-07T17:23:28;16.50;58.60
25360;DHT22;13311;51.386;0.016;2023-04-07T17:28:30;16.40;59.20
25360;DHT22;13311;51.386;0.016;2023-04-07T17:33:31;16.40;58.60
25360;DHT22;13311;51.386;0.016;2023-04-07T17:38:32;16.40;58.10
25360;DHT22;13311;51.386;0.016;2023-04-07T17:43:33;16.30;58.20
25360;DHT22;13311;51.386;0.016;2023-04-07T17:48:34;16.30;58.90
25360;DHT22;13311;51.386;0.016;2023-04-07T17:53:34;16.20;59.40
25360;DHT22;13311;51.386;0.016;2023-04-07T17:58:35;16.10;60.90
25360;DHT22;13311;51.386;0.016;2023-04-07T18:03:36;16.00;60.80
25360;DHT22;13311;51.386;0.016;2023-04-07T18:08:37;15.90;60.60
25360;DHT22;13311;51.386;0.016;2023-04-07T18:13:38;15.90;61.00
25360;DHT22;13311;51.386;0.016;2023-04-07T18:18:38;15.80;61.80
25360;DHT22;13311;51.386;0.016;2023-04-07T18:23:39;15.80;62.80
25360;DHT22;13311;51.386;0.016;2023-04-07T18:28:40;15.70;62.50
25360;DHT22;13311;51.386;0.016;2023-04-07T18:33:41;15.60;63.10
25360;DHT22;13311;51.386;0.016;2023-04-07T18:38:41;15.60;63.90
25360;DHT22;13311;51.386;0.016;2023-04-07T18:43:42;15.50;64.30
25360;DHT22;13311;51.386;0.016;2023-04-07T18:48:46;15.40;64.80
25360;DHT22;13311;51.386;0.016;2023-04-07T18:53:47;15.30;65.00
25360;DHT22;13311;51.386;0.016;2023-04-07T18:58:47;15.20;65.60
25360;DHT22;13311;51.386;0.016;2023-04-07T19:03:48;15.10;66.10
25360;DHT22;13311;51.386;0.016;2023-04-07T19:08:49;15.00;66.60
25360;DHT22;13311;51.386;0.016;2023-04-07T19:13:50;14.90;67.20
25360;DHT22;13311;51.386;0.016;2023-04-07T19:18:55;14.90;69.90
25360;DHT22;13311;51.386;0.016;2023-04-07T19:23:56;14.90;70.60
25360;DHT22;13311;51.386;0.016;2023-04-07T19:28:58;14.80;71.10
25360;DHT22;13311;51.386;0.016;2023-04-07T19:33:59;14.70;73.20
25360;DHT22;13311;51.386;0.016;2023-04-07T19:39:00;14.60;74.10
25360;DHT22;13311;51.386;0.016;2023-04-07T19:44:02;14.50;74.70
25360;DHT22;13311;51.386;0.016;2023-04-07T19:49:03;14.40;75.20
25360;DHT22;13311;51.386;0.016;2023-04-07T19:54:03;14.30;75.50
25360;DHT22;13311;51.386;0.016;2023-04-07T19:59:06;14.10;76.80
25360;DHT22;13311;51.386;0.016;2023-04-07T20:04:06;14.00;77.60
25360;DHT22;13311;51.386;0.016;2023-04-07T20:09:07;13.90;78.30
25360;DHT22;13311;51.386;0.016;2023-04-07T20:14:08;13.80;78.90
25360;DHT22;13311;51.386;0.016;2023-04-07T20:19:08;13.70;78.90
25360;DHT22;13311;51.386;0.016;2023-04-07T20:24:10;13.60;79.80
25360;DHT22;13311;51.386;0.016;2023-04-07T20:29:11;13.50;80.50
25360;DHT22;13311;51.386;0.016;2023-04-07T20:34:12;13.40;80.60
25360;DHT22;13311;51.386;0.016;2023-04-07T20:39:12;13.20;81.80
25360;DHT22;13311;51.386;0.016;2023-04-07T20:44:13;13.10;82.10
25360;DHT22;13311;51.386;0.016;2023-04-07T20:49:14;13.00;81.70
25360;DHT22;13311;51.386;0.016;2023-04-07T20:54:15;12.80;82.50
25360;DHT22;13311;51.386;0.016;2023-04-07T20:59:16;12.70;83.20
25360;DHT22;13311;51.386;0.016;2023-04-07T21:04:16;12.60;83.80
25360;DHT22;13311;51.386;0.016;2023-04-07T21:09:17;12.50;83.70
25360;DHT22;13311;51.386;0.016;2023-04-07T21:14:18;12.40;84.00
25360;DHT22;13311;51.386;0.016;2023-04-07T21:19:18;12.30;84.70
25360;DHT22;13311;51.386;0.016;2023-04-07T21:24:20;12.30;85.00
25360;DHT22;13311;51.386;0.016;2023-04-07T21:29:21;12.10;85.50
25360;DHT22;13311;51.386;0.016;2023-04-07T21:34:22;12.10;85.70
25360;DHT22;13311;51.386;0.016;2023-04-07T21:39:22;12.00;86.10
25360;DHT22;13311;51.386;0.016;2023-04-07T21:44:23;11.90;86.40
25360;DHT22;13311;51.386;0.016;2023-04-07T21:49:25;11.90;86.90
25360;DHT22;13311;51.386;0.016;2023-04-07T21:54:26;11.80;86.60
25360;DHT22;13311;51.386;0.016;2023-04-07T21:59:27;11.70;87.40
25360;DHT22;13311;51.386;0.016;2023-04-07T22:04:28;11.60;87.90
25360;DHT22;13311;51.386;0.016;2023-04-07T22:09:29;11.50;87.70
25360;DHT22;13311;51.386;0.016;2023-04-07T22:14:30;11.40;87.80
25360;DHT22;13311;51.386;0.016;2023-04-07T22:19:30;11.40;87.80
25360;DHT22;13311;51.386;0.016;2023-04-07T22:24:31;11.30;87.90
25360;DHT22;13311;51.386;0.016;2023-04-07T22:29:32;11.20;88.50
25360;DHT22;13311;51.386;0.016;2023-04-07T22:34:32;11.20;88.60
25360;DHT22;13311;51.386;0.016;2023-04-07T22:39:33;11.10;88.50
25360;DHT22;13311;51.386;0.016;2023-04-07T22:44:34;11.00;88.30
25360;DHT22;13311;51.386;0.016;2023-04-07T22:49:35;11.00;88.60
25360;DHT22;13311;51.386;0.016;2023-04-07T22:54:36;10.90;89.20
25360;DHT22;13311;51.386;0.016;2023-04-07T22:59:36;10.80;89.40
25360;DHT22;13311;51.386;0.016;2023-04-07T23:04:37;10.80;89.90
25360;DHT22;13311;51.386;0.016;2023-04-07T23:09:38;10.80;90.30
25360;DHT22;13311;51.386;0.016;2023-04-07T23:14:38;10.70;90.60
25360;DHT22;13311;51.386;0.016;2023-04-07T23:19:39;10.70;91.50
25360;DHT22;13311;51.386;0.016;2023-04-07T23:24:40;10.60;92.10
25360;DHT22;13311;51.386;0.016;2023-04-07T23:29:41;10.60;92.40
25360;DHT22;13311;51.386;0.016;2023-04-07T23:34:41;10.60;92.70
25360;DHT22;13311;51.386;0.016;2023-04-07T23:39:42;10.50;93.20
25360;DHT22;13311;51.386;0.016;2023-04-07T23:44:43;10.40;93.70
25360;DHT22;13311;51.386;0.016;2023-04-07T23:49:44;10.30;93.40
25360;DHT22;13311;51.386;0.016;2023-04-07T23:54:44;10.30;93.80
25360;DHT22;13311;51.386;0.016;2023-04-07T23:59:45;10.20;94.30
